Hanalei, Hawaii
Current Conditions -  °F | °C
As of 11:18 PM on Thursday 23 Oct 2014 (Local Time) from PHLI Reporting Station
Scattered Clouds Scattered Clouds  
Wind Chill: 26°   Ceiling: Unl
Heat Index: 27°   Visibility: 10mi
Dew Point: 21°   Wind: 18mph
Humidity: 74%   Direction: 70°ENE
Pressure: 30.08"   Gusts: NA
Location:  22.2°N, 159.49°W
Report Text: PHLI 240918Z AUTO 07016KT 10SM SCT023 SCT047 26/21 A3008 RMK AO2 RAE0859 P0000 TSNO
Loading
Personal Weather Stations






























Interactive Weather Map
Tropical Storm Tracking
New forecast layout! Learn more

10-Day Weather Forecast

Advertisements
Track Severe Weather on mobile